createdAt,value
2022-08-20T00:02:16.834Z,100.00
2022-08-20T00:04:45.926Z,100.00
2022-08-20T00:07:15.246Z,100.00
2022-08-20T00:09:43.851Z,100.00
2022-08-20T00:12:13.483Z,100.00
2022-08-20T00:14:42.085Z,100.00
2022-08-20T00:17:11.913Z,100.00
2022-08-20T00:19:40.467Z,100.00
2022-08-20T00:22:09.026Z,100.00
2022-08-20T00:24:37.381Z,100.00
2022-08-20T00:27:05.955Z,100.00
2022-08-20T00:29:34.312Z,100.00
2022-08-20T00:32:02.848Z,100.00
2022-08-20T00:34:32.632Z,100.00
2022-08-20T00:37:01.015Z,100.00
2022-08-20T00:39:29.432Z,100.00
2022-08-20T00:41:57.824Z,100.00
2022-08-20T00:44:26.349Z,100.00
2022-08-20T00:46:55.792Z,100.00
2022-08-20T00:49:28.117Z,100.00
2022-08-20T00:52:02.310Z,100.00
2022-08-20T00:54:36.687Z,100.00
2022-08-20T00:57:09.932Z,100.00
2022-08-20T00:59:41.879Z,100.00
2022-08-20T01:02:17.610Z,100.00
2022-08-20T01:04:49.162Z,100.00
2022-08-20T01:07:20.654Z,100.00
2022-08-20T01:09:58.174Z,100.00
2022-08-20T01:12:29.105Z,100.00
2022-08-20T01:15:00.130Z,100.00
2022-08-20T01:17:32.631Z,100.00
2022-08-20T01:20:06.236Z,100.00
2022-08-20T01:22:56.012Z,100.00
2022-08-20T01:25:31.966Z,100.00
2022-08-20T01:28:02.671Z,100.00
2022-08-20T01:30:33.146Z,100.00
2022-08-20T01:33:02.522Z,100.00
2022-08-20T01:35:31.292Z,100.00
2022-08-20T01:37:59.764Z,100.00
2022-08-20T01:40:45.733Z,100.00
2022-08-20T01:43:15.973Z,100.00
2022-08-20T01:45:45.880Z,100.00
2022-08-20T01:48:19.136Z,100.00
2022-08-20T01:50:56.713Z,100.00
2022-08-20T01:53:33.625Z,100.00
2022-08-20T01:56:03.026Z,100.00
2022-08-20T01:58:33.477Z,100.00
2022-08-20T02:01:01.872Z,100.00
2022-08-20T02:03:34.823Z,100.00
2022-08-20T02:06:06.529Z,100.00
2022-08-20T02:08:35.056Z,100.00
2022-08-20T02:11:03.472Z,100.00
2022-08-20T02:13:33.311Z,100.00
2022-08-20T02:16:01.777Z,100.00
2022-08-20T02:18:30.090Z,100.00
2022-08-20T02:20:58.577Z,100.00
2022-08-20T02:23:27.038Z,100.00
2022-08-20T02:25:55.714Z,100.00
2022-08-20T02:28:24.173Z,100.00
2022-08-20T02:30:55.496Z,100.00
2022-08-20T02:33:24.678Z,100.00
2022-08-20T02:35:56.635Z,100.00
2022-08-20T02:38:25.512Z,100.00
2022-08-20T02:40:54.248Z,100.00
2022-08-20T02:43:22.597Z,100.00
2022-08-20T02:45:51.734Z,100.00
2022-08-20T02:48:23.353Z,100.00
2022-08-20T02:50:54.373Z,100.00
2022-08-20T02:53:23.178Z,100.00
2022-08-20T02:55:51.980Z,100.00
2022-08-20T02:58:21.347Z,100.00
2022-08-20T03:00:51.044Z,100.00
2022-08-20T03:03:22.899Z,100.00
2022-08-20T03:05:54.891Z,100.00
2022-08-20T03:08:24.708Z,100.00
2022-08-20T03:10:53.748Z,100.00
2022-08-20T03:13:22.855Z,100.00
2022-08-20T03:15:56.603Z,100.00
2022-08-20T03:18:31.803Z,100.00
2022-08-20T03:21:00.272Z,100.00
2022-08-20T03:23:28.900Z,100.00
2022-08-20T03:25:57.321Z,100.00
2022-08-20T03:28:25.780Z,100.00
2022-08-20T03:30:56.639Z,100.00
2022-08-20T03:33:25.400Z,100.00
2022-08-20T03:35:55.346Z,100.00
2022-08-20T03:38:32.320Z,100.00
2022-08-20T03:41:02.284Z,100.00
2022-08-20T03:43:31.253Z,100.00
2022-08-20T03:45:59.759Z,100.00
2022-08-20T03:48:28.428Z,100.00
2022-08-20T03:51:00.929Z,100.00
2022-08-20T03:53:31.723Z,100.00
2022-08-20T03:56:04.521Z,100.00
2022-08-20T03:58:36.517Z,100.00
2022-08-20T04:01:06.796Z,100.00
2022-08-20T04:03:35.660Z,100.00
2022-08-20T04:06:05.783Z,100.00
2022-08-20T04:08:34.646Z,100.00
2022-08-20T04:11:03.155Z,100.00
2022-08-20T04:13:32.302Z,100.00
2022-08-20T04:16:04.008Z,100.00
2022-08-20T04:18:33.181Z,100.00
2022-08-20T04:21:01.837Z,100.00
2022-08-20T04:23:32.178Z,100.00
2022-08-20T04:26:01.608Z,100.00
2022-08-20T04:28:30.192Z,100.00
2022-08-20T04:31:01.236Z,100.00
2022-08-20T04:33:33.802Z,100.00
2022-08-20T04:36:06.411Z,100.00
2022-08-20T04:38:47.880Z,100.00
2022-08-20T04:41:22.358Z,100.00
2022-08-20T04:43:53.188Z,100.00
2022-08-20T04:46:23.721Z,100.00
2022-08-20T04:48:52.235Z,100.00
2022-08-20T04:51:23.136Z,100.00
2022-08-20T04:53:54.556Z,100.00
2022-08-20T04:56:24.705Z,100.00
2022-08-20T04:58:54.495Z,100.00
2022-08-20T05:01:24.312Z,100.00
2022-08-20T05:03:55.083Z,100.00
2022-08-20T05:06:25.990Z,100.00
2022-08-20T05:08:56.597Z,100.00
2022-08-20T05:11:33.168Z,100.00
2022-08-20T05:14:03.819Z,100.00
2022-08-20T05:16:38.113Z,100.00
2022-08-20T05:19:08.921Z,100.00
2022-08-20T05:21:37.872Z,100.00
2022-08-20T05:24:10.299Z,100.00
2022-08-20T05:26:38.981Z,100.00
2022-08-20T05:29:08.039Z,100.00
2022-08-20T05:31:38.544Z,100.00
2022-08-20T05:34:10.349Z,100.00
2022-08-20T05:36:39.908Z,100.00
2022-08-20T05:39:10.557Z,100.00
2022-08-20T05:41:39.258Z,100.00
2022-08-20T05:44:11.279Z,100.00
2022-08-20T05:46:41.069Z,100.00
2022-08-20T05:49:09.789Z,100.00
2022-08-20T05:51:38.806Z,100.00
2022-08-20T05:54:08.308Z,100.00
2022-08-20T05:56:38.350Z,100.00
2022-08-20T05:59:09.671Z,100.00
2022-08-20T06:01:39.871Z,100.00
2022-08-20T06:04:26.273Z,100.00
2022-08-20T06:06:57.052Z,100.00
2022-08-20T06:09:30.678Z,100.00
2022-08-20T06:12:02.425Z,100.00
2022-08-20T06:14:31.354Z,100.00
2022-08-20T06:17:05.600Z,100.00
2022-08-20T06:19:35.133Z,100.00
2022-08-20T06:22:18.317Z,95.08
2022-08-20T06:24:52.695Z,92.70
2022-08-20T06:27:22.882Z,87.32
2022-08-20T06:29:52.084Z,87.36
2022-08-20T06:32:32.235Z,88.16
2022-08-20T06:35:03.706Z,81.88
2022-08-20T06:37:33.956Z,76.82
2022-08-20T06:40:06.172Z,80.51
2022-08-20T06:42:36.104Z,80.75
2022-08-20T06:45:06.035Z,78.64
2022-08-20T06:47:35.404Z,76.23
2022-08-20T06:50:03.779Z,72.11
2022-08-20T06:52:52.253Z,69.16
2022-08-20T06:55:21.046Z,62.91
2022-08-20T06:57:58.211Z,59.41
2022-08-20T07:00:27.847Z,60.59
2022-08-20T07:02:56.472Z,57.48
2022-08-20T07:05:25.000Z,54.32
2022-08-20T07:07:53.444Z,53.21
2022-08-20T07:10:24.844Z,53.05
2022-08-20T07:12:54.753Z,50.93
2022-08-20T07:15:25.897Z,51.89
2022-08-20T07:18:00.863Z,50.65
2022-08-20T07:20:30.604Z,47.84
2022-08-20T07:22:59.084Z,46.83
2022-08-20T07:25:27.821Z,44.68
2022-08-20T07:28:01.909Z,46.20
2022-08-20T07:30:57.064Z,45.90
2022-08-20T07:33:28.204Z,48.02
2022-08-20T07:35:57.432Z,46.06
2022-08-20T07:38:28.174Z,49.20
2022-08-20T07:40:58.937Z,47.37
2022-08-20T07:43:29.433Z,43.78
2022-08-20T07:46:01.259Z,43.90
2022-08-20T07:48:32.031Z,42.60
2022-08-20T07:51:03.071Z,42.98
2022-08-20T07:53:35.871Z,41.68
2022-08-20T07:56:08.217Z,43.23
2022-08-20T07:58:39.860Z,41.39
2022-08-20T08:01:10.817Z,41.29
2022-08-20T08:03:49.922Z,41.24
2022-08-20T08:06:29.486Z,40.07
2022-08-20T08:09:02.529Z,41.02
2022-08-20T08:11:32.486Z,40.74
2022-08-20T08:14:02.566Z,40.88
2022-08-20T08:16:32.738Z,42.12
2022-08-20T08:19:02.116Z,41.19
2022-08-20T08:21:32.292Z,43.24
2022-08-20T08:24:00.760Z,41.08
2022-08-20T08:26:29.587Z,40.30
2022-08-20T08:28:58.432Z,40.01
2022-08-20T08:31:28.408Z,40.57
2022-08-20T08:33:56.901Z,40.58
2022-08-20T08:36:27.412Z,39.72
2022-08-20T08:38:56.749Z,40.77
2022-08-20T08:41:31.536Z,42.40
2022-08-20T08:44:06.141Z,41.65
2022-08-20T08:46:41.237Z,39.91
2022-08-20T08:49:13.901Z,39.01
2022-08-20T08:51:44.310Z,39.09
2022-08-20T08:54:17.693Z,39.04
2022-08-20T08:56:49.751Z,38.06
2022-08-20T08:59:20.241Z,35.51
2022-08-20T09:01:54.244Z,35.43
2022-08-20T09:04:29.266Z,35.66
2022-08-20T09:06:57.722Z,34.01
2022-08-20T09:09:29.152Z,33.72
2022-08-20T09:12:03.155Z,32.83
2022-08-20T09:14:31.496Z,33.38
2022-08-20T09:17:01.308Z,33.61
2022-08-20T09:19:29.849Z,33.84
2022-08-20T09:21:58.439Z,32.69
2022-08-20T09:24:27.097Z,32.96
2022-08-20T09:26:55.402Z,32.32
2022-08-20T09:29:23.841Z,32.72
2022-08-20T09:31:52.200Z,31.83
2022-08-20T09:34:22.373Z,33.33
2022-08-20T09:36:50.786Z,34.02
2022-08-20T09:39:19.214Z,33.66
2022-08-20T09:41:47.594Z,35.63
2022-08-20T09:44:15.913Z,37.88
2022-08-20T09:46:44.316Z,37.95
2022-08-20T09:49:12.717Z,37.41
2022-08-20T09:51:42.468Z,36.92
2022-08-20T09:54:10.957Z,36.89
2022-08-20T09:56:39.433Z,36.45
2022-08-20T09:59:08.834Z,37.67
2022-08-20T10:01:37.364Z,33.16
2022-08-20T10:04:06.089Z,33.79
2022-08-20T10:06:37.713Z,32.70
2022-08-20T10:09:08.044Z,33.58
2022-08-20T10:11:36.396Z,33.26
2022-08-20T10:14:05.068Z,32.50
2022-08-20T10:16:33.580Z,31.67
2022-08-20T10:19:02.113Z,31.07
2022-08-20T10:21:34.309Z,31.69
2022-08-20T10:24:05.272Z,33.77
2022-08-20T10:26:35.172Z,32.05
2022-08-20T10:29:03.553Z,33.96
2022-08-20T10:31:31.927Z,31.81
2022-08-20T10:34:00.356Z,30.33
2022-08-20T10:36:28.876Z,30.93
2022-08-20T10:38:57.341Z,31.13
2022-08-20T10:41:25.721Z,30.08
2022-08-20T10:43:55.461Z,29.46
2022-08-20T10:46:23.876Z,30.28
2022-08-20T10:48:52.384Z,29.27
2022-08-20T10:51:20.783Z,29.64
2022-08-20T10:54:00.860Z,29.66
2022-08-20T10:56:29.556Z,31.13
2022-08-20T10:58:59.381Z,30.28
2022-08-20T11:01:31.334Z,29.02
2022-08-20T11:04:01.583Z,29.80
2022-08-20T11:06:29.993Z,29.34
2022-08-20T11:08:58.388Z,29.29
2022-08-20T11:11:26.837Z,29.98
2022-08-20T11:13:55.202Z,31.67
2022-08-20T11:16:26.341Z,31.61
2022-08-20T11:18:54.754Z,31.26
2022-08-20T11:21:23.146Z,30.17
2022-08-20T11:23:51.533Z,30.31
2022-08-20T11:26:23.548Z,29.17
2022-08-20T11:28:52.113Z,30.08
2022-08-20T11:31:20.564Z,31.07
2022-08-20T11:33:50.441Z,30.96
2022-08-20T11:36:18.873Z,31.52
2022-08-20T11:38:47.296Z,32.42
2022-08-20T11:41:15.933Z,32.07
2022-08-20T11:43:59.447Z,32.29
2022-08-20T11:46:33.881Z,31.92
2022-08-20T11:49:03.869Z,30.66
2022-08-20T11:51:39.074Z,31.10
2022-08-20T11:54:18.574Z,31.39
2022-08-20T11:56:47.029Z,31.49
2022-08-20T11:59:15.509Z,31.99
2022-08-20T12:02:02.391Z,31.90
2022-08-20T12:04:33.925Z,31.41
2022-08-20T12:07:13.864Z,30.96
2022-08-20T12:09:50.602Z,33.15
2022-08-20T12:12:22.490Z,31.14
2022-08-20T12:14:50.838Z,32.41
2022-08-20T12:17:24.031Z,33.37
2022-08-20T12:19:56.178Z,32.13
2022-08-20T12:22:25.604Z,32.51
2022-08-20T12:24:54.980Z,32.51
2022-08-20T12:27:26.859Z,32.27
2022-08-20T12:29:57.561Z,31.68
2022-08-20T12:32:27.782Z,32.17
2022-08-20T12:34:57.644Z,32.66
2022-08-20T12:37:27.830Z,34.14
2022-08-20T12:39:57.915Z,35.13
2022-08-20T12:42:27.150Z,33.52
2022-08-20T12:44:55.608Z,33.91
2022-08-20T12:47:26.332Z,33.59
2022-08-20T12:49:56.846Z,33.72
2022-08-20T12:52:27.060Z,33.23
2022-08-20T12:54:56.517Z,33.40
2022-08-20T12:57:29.233Z,33.24
2022-08-20T12:59:59.019Z,33.40
2022-08-20T13:02:28.001Z,33.41
2022-08-20T13:04:58.288Z,32.22
2022-08-20T13:07:30.128Z,31.89
2022-08-20T13:10:00.022Z,32.67
2022-08-20T13:12:29.955Z,33.14
2022-08-20T13:14:58.317Z,33.37
2022-08-20T13:17:37.975Z,34.26
2022-08-20T13:20:10.926Z,33.63
2022-08-20T13:22:41.052Z,32.99
2022-08-20T13:25:11.497Z,33.25
2022-08-20T13:27:42.390Z,34.32
2022-08-20T13:30:13.503Z,34.63
2022-08-20T13:32:42.220Z,34.21
2022-08-20T13:35:12.699Z,34.00
2022-08-20T13:37:44.091Z,33.67
2022-08-20T13:40:14.015Z,35.11
2022-08-20T13:42:42.542Z,35.87
2022-08-20T13:45:12.065Z,33.67
2022-08-20T13:47:42.175Z,32.77
2022-08-20T13:50:13.384Z,32.60
2022-08-20T13:52:43.692Z,31.49
2022-08-20T13:55:14.360Z,32.02
2022-08-20T13:57:43.857Z,31.56
2022-08-20T14:00:15.951Z,34.01
2022-08-20T14:02:44.465Z,31.19
2022-08-20T14:05:14.597Z,30.29
2022-08-20T14:07:50.318Z,30.26
2022-08-20T14:10:24.429Z,31.19
2022-08-20T14:12:53.057Z,31.38
2022-08-20T14:15:21.624Z,32.57
2022-08-20T14:17:53.355Z,32.98
2022-08-20T14:20:25.983Z,33.97
2022-08-20T14:22:59.622Z,34.68
2022-08-20T14:25:28.838Z,34.28
2022-08-20T14:27:57.776Z,33.78
2022-08-20T14:30:28.769Z,35.11
2022-08-20T14:32:57.864Z,35.54
2022-08-20T14:35:26.677Z,37.04
2022-08-20T14:37:56.733Z,39.04
2022-08-20T14:40:28.074Z,39.88
2022-08-20T14:42:57.253Z,40.37
2022-08-20T14:45:25.817Z,39.09
2022-08-20T14:47:57.235Z,41.48
2022-08-20T14:50:27.638Z,42.77
2022-08-20T14:52:57.191Z,41.62
2022-08-20T14:55:29.274Z,42.27
2022-08-20T14:57:57.893Z,41.85
2022-08-20T15:00:29.127Z,43.04
2022-08-20T15:02:58.296Z,41.28
2022-08-20T15:05:27.227Z,41.57
2022-08-20T15:07:59.428Z,42.64
2022-08-20T15:10:32.864Z,44.24
2022-08-20T15:13:02.657Z,43.63
2022-08-20T15:15:31.436Z,43.93
2022-08-20T15:18:01.834Z,45.04
2022-08-20T15:20:33.343Z,45.25
2022-08-20T15:23:02.549Z,43.97
2022-08-20T15:25:37.071Z,44.16
2022-08-20T15:28:08.838Z,45.16
2022-08-20T15:30:41.990Z,43.22
2022-08-20T15:33:11.654Z,43.95
2022-08-20T15:35:43.698Z,42.04
2022-08-20T15:38:13.094Z,41.24
2022-08-20T15:40:43.647Z,41.00
2022-08-20T15:43:12.525Z,43.32
2022-08-20T15:45:45.332Z,43.84
2022-08-20T15:48:16.839Z,43.93
2022-08-20T15:51:27.646Z,47.97
2022-08-20T15:54:01.189Z,44.90
2022-08-20T15:56:54.989Z,45.59
2022-08-20T15:59:55.473Z,45.65
2022-08-20T16:02:47.892Z,47.87
2022-08-20T16:05:25.971Z,49.71
2022-08-20T16:08:06.397Z,47.26
2022-08-20T16:10:47.223Z,48.00
2022-08-20T16:13:28.585Z,48.44
2022-08-20T16:16:01.004Z,48.26
2022-08-20T16:18:33.806Z,51.09
2022-08-20T16:21:04.013Z,51.64
2022-08-20T16:23:36.513Z,51.57
2022-08-20T16:26:15.922Z,54.17
2022-08-20T16:28:54.762Z,55.16
2022-08-20T16:31:29.729Z,54.13
2022-08-20T16:34:25.725Z,53.36
2022-08-20T16:37:03.497Z,56.76
2022-08-20T16:39:39.170Z,59.02
2022-08-20T16:42:11.448Z,58.22
2022-08-20T16:44:48.277Z,57.11
2022-08-20T16:47:21.188Z,58.91
2022-08-20T16:49:54.969Z,58.78
2022-08-20T16:52:29.414Z,58.72
2022-08-20T16:55:01.864Z,60.38
2022-08-20T16:57:30.712Z,60.08
2022-08-20T17:00:10.654Z,61.94
2022-08-20T17:02:56.721Z,63.28
2022-08-20T17:05:29.325Z,66.17
2022-08-20T17:08:04.119Z,67.48
2022-08-20T17:10:37.885Z,74.94
2022-08-20T17:13:20.901Z,77.35
2022-08-20T17:15:58.375Z,80.11
2022-08-20T17:18:29.086Z,82.53
2022-08-20T17:21:02.025Z,81.59
2022-08-20T17:23:49.115Z,79.42
2022-08-20T17:26:29.771Z,77.93
2022-08-20T17:29:01.479Z,75.97
2022-08-20T17:31:38.922Z,75.26
2022-08-20T17:34:16.538Z,76.14
2022-08-20T17:36:57.158Z,75.45
2022-08-20T17:39:28.004Z,78.68
2022-08-20T17:42:05.279Z,78.02
2022-08-20T17:44:38.257Z,95.11
2022-08-20T17:47:12.771Z,96.33
2022-08-20T17:49:54.967Z,94.96
2022-08-20T17:52:37.784Z,91.99
2022-08-20T17:55:07.397Z,90.55
2022-08-20T17:57:41.584Z,81.41
2022-08-20T18:00:15.651Z,79.87
2022-08-20T18:02:45.869Z,82.91
2022-08-20T18:05:20.102Z,85.01
2022-08-20T18:08:13.638Z,78.68
2022-08-20T18:10:50.917Z,83.45
2022-08-20T18:13:21.553Z,79.34
2022-08-20T18:15:55.080Z,78.01
2022-08-20T18:18:56.469Z,82.69
2022-08-20T18:21:57.727Z,84.41
2022-08-20T18:24:35.292Z,78.80
2022-08-20T18:27:08.796Z,77.14
2022-08-20T18:29:42.510Z,77.35
2022-08-20T18:32:26.175Z,89.61
2022-08-20T18:35:08.077Z,88.15
2022-08-20T18:37:36.611Z,96.14
2022-08-20T18:40:28.963Z,100.00
2022-08-20T18:42:59.079Z,100.00
2022-08-20T18:45:32.126Z,100.00
2022-08-20T18:48:01.903Z,100.00
2022-08-20T18:50:43.853Z,100.00
2022-08-20T18:53:18.974Z,100.00
2022-08-20T18:55:49.400Z,100.00
2022-08-20T18:58:31.973Z,100.00
2022-08-20T19:01:03.207Z,100.00
2022-08-20T19:03:38.643Z,100.00
2022-08-20T19:06:24.186Z,100.00
2022-08-20T19:09:00.716Z,100.00
2022-08-20T19:12:11.482Z,100.00
2022-08-20T19:14:55.596Z,100.00
2022-08-20T19:17:38.298Z,100.00
2022-08-20T19:20:11.833Z,100.00
2022-08-20T19:22:44.062Z,100.00
2022-08-20T19:25:23.898Z,100.00
2022-08-20T19:27:52.724Z,100.00
2022-08-20T19:30:34.504Z,100.00
2022-08-20T19:33:03.192Z,100.00
2022-08-20T19:35:32.333Z,100.00
2022-08-20T19:38:03.459Z,100.00
2022-08-20T19:40:35.141Z,100.00
2022-08-20T19:43:13.408Z,100.00
2022-08-20T19:45:46.804Z,100.00
2022-08-20T19:48:29.139Z,100.00
2022-08-20T19:51:06.684Z,100.00
2022-08-20T19:53:38.503Z,100.00
2022-08-20T19:56:12.108Z,100.00
2022-08-20T19:58:41.541Z,100.00
2022-08-20T20:01:16.666Z,100.00
2022-08-20T20:03:57.030Z,100.00
2022-08-20T20:06:27.064Z,100.00
2022-08-20T20:09:00.172Z,100.00
2022-08-20T20:11:35.901Z,100.00
2022-08-20T20:14:09.115Z,100.00
2022-08-20T20:16:38.734Z,100.00
2022-08-20T20:19:26.862Z,100.00
2022-08-20T20:22:17.339Z,100.00
2022-08-20T20:24:58.215Z,100.00
2022-08-20T20:27:28.983Z,100.00
2022-08-20T20:30:01.540Z,100.00
2022-08-20T20:32:30.851Z,100.00
2022-08-20T20:35:01.760Z,100.00
2022-08-20T20:37:50.732Z,100.00
2022-08-20T20:40:27.817Z,100.00
2022-08-20T20:43:02.960Z,100.00
2022-08-20T20:45:34.668Z,100.00
2022-08-20T20:48:18.484Z,100.00
2022-08-20T20:50:48.763Z,100.00
2022-08-20T20:53:35.076Z,100.00
2022-08-20T20:56:35.001Z,100.00
2022-08-20T20:59:06.819Z,100.00
2022-08-20T21:01:49.391Z,100.00
2022-08-20T21:04:19.996Z,100.00
2022-08-20T21:06:48.444Z,100.00
2022-08-20T21:09:16.990Z,100.00
2022-08-20T21:11:47.311Z,100.00
2022-08-20T21:14:16.487Z,100.00
2022-08-20T21:16:45.615Z,100.00
2022-08-20T21:19:14.286Z,100.00
2022-08-20T21:21:43.853Z,100.00
2022-08-20T21:24:12.762Z,100.00
2022-08-20T21:26:41.565Z,100.00
2022-08-20T21:29:14.797Z,100.00
2022-08-20T21:31:45.700Z,100.00
2022-08-20T21:34:17.506Z,100.00
2022-08-20T21:36:46.569Z,100.00
2022-08-20T21:39:15.190Z,100.00
2022-08-20T21:41:44.261Z,100.00
2022-08-20T21:44:22.394Z,100.00
2022-08-20T21:46:54.734Z,100.00
2022-08-20T21:49:23.703Z,100.00
2022-08-20T21:51:53.063Z,100.00
2022-08-20T21:54:22.631Z,100.00
2022-08-20T21:57:00.205Z,100.00
2022-08-20T21:59:30.557Z,100.00
2022-08-20T22:02:00.685Z,100.00
2022-08-20T22:04:33.474Z,100.00
2022-08-20T22:07:04.121Z,100.00
2022-08-20T22:09:34.020Z,100.00
2022-08-20T22:12:02.808Z,100.00
2022-08-20T22:14:33.228Z,100.00
2022-08-20T22:17:01.659Z,100.00
2022-08-20T22:19:30.083Z,100.00
2022-08-20T22:21:58.744Z,100.00
2022-08-20T22:24:29.461Z,100.00
2022-08-20T22:26:58.232Z,100.00
2022-08-20T22:29:26.817Z,100.00
2022-08-20T22:31:56.699Z,100.00
2022-08-20T22:34:25.141Z,100.00
2022-08-20T22:36:55.808Z,100.00
2022-08-20T22:39:24.181Z,100.00
2022-08-20T22:41:53.203Z,100.00
2022-08-20T22:44:21.722Z,100.00
2022-08-20T22:46:55.164Z,100.00
2022-08-20T22:49:30.448Z,100.00
2022-08-20T22:51:58.969Z,100.00
2022-08-20T22:54:27.525Z,100.00
2022-08-20T22:56:56.670Z,100.00
2022-08-20T22:59:25.997Z,100.00
2022-08-20T23:01:55.129Z,100.00
2022-08-20T23:04:28.942Z,100.00
2022-08-20T23:06:58.509Z,100.00
2022-08-20T23:09:27.736Z,100.00
2022-08-20T23:11:58.782Z,100.00
2022-08-20T23:14:27.501Z,100.00
2022-08-20T23:17:02.427Z,100.00
2022-08-20T23:19:32.379Z,100.00
2022-08-20T23:22:00.786Z,100.00
2022-08-20T23:24:29.175Z,100.00
2022-08-20T23:26:57.667Z,100.00
2022-08-20T23:29:27.080Z,100.00
2022-08-20T23:31:56.355Z,100.00
2022-08-20T23:34:25.100Z,100.00
2022-08-20T23:36:57.047Z,100.00
2022-08-20T23:39:26.585Z,100.00
2022-08-20T23:41:55.329Z,100.00
2022-08-20T23:44:27.026Z,100.00
2022-08-20T23:46:57.158Z,100.00
2022-08-20T23:49:25.682Z,100.00
2022-08-20T23:51:55.510Z,100.00
2022-08-20T23:54:24.036Z,100.00
2022-08-20T23:56:56.871Z,100.00
2022-08-20T23:59:26.027Z,100.00
